sensor_id;sensor_type;location;lat;lon;timestamp;P1;durP1;ratioP1;P2;durP2;ratioP2
7823;SDS011;3957;48.61947800;9.05303100;2022-09-16T00:01:15;6.43;;;4.18;;
7823;SDS011;3957;48.61947800;9.05303100;2022-09-16T00:02:38;5.05;;;3.95;;
7823;SDS011;3957;48.61947800;9.05303100;2022-09-16T00:03:58;4.65;;;3.50;;
7823;SDS011;3957;48.61947800;9.05303100;2022-09-16T00:05:19;4.78;;;3.88;;
7823;SDS011;3957;48.61947800;9.05303100;2022-09-16T00:06:40;4.38;;;3.65;;
7823;SDS011;3957;48.61947800;9.05303100;2022-09-16T00:08:01;4.70;;;3.92;;
7823;SDS011;3957;48.61947800;9.05303100;2022-09-16T00:09:22;5.13;;;3.90;;
7823;SDS011;3957;48.61947800;9.05303100;2022-09-16T00:10:42;7.50;;;3.47;;
7823;SDS011;3957;48.61947800;9.05303100;2022-09-16T00:12:04;4.72;;;3.53;;
7823;SDS011;3957;48.61947800;9.05303100;2022-09-16T00:13:25;4.70;;;3.33;;
7823;SDS011;3957;48.61947800;9.05303100;2022-09-16T00:14:46;4.88;;;3.60;;
7823;SDS011;3957;48.61947800;9.05303100;2022-09-16T00:16:11;4.55;;;3.63;;
7823;SDS011;3957;48.61947800;9.05303100;2022-09-16T00:17:36;5.95;;;4.22;;
7823;SDS011;3957;48.61947800;9.05303100;2022-09-16T00:18:58;7.22;;;3.78;;
7823;SDS011;3957;48.61947800;9.05303100;2022-09-16T00:20:20;5.25;;;3.60;;
7823;SDS011;3957;48.61947800;9.05303100;2022-09-16T00:21:41;6.93;;;3.80;;
7823;SDS011;3957;48.61947800;9.05303100;2022-09-16T00:23:01;5.63;;;3.60;;
7823;SDS011;3957;48.61947800;9.05303100;2022-09-16T00:24:22;6.13;;;3.83;;
7823;SDS011;3957;48.61947800;9.05303100;2022-09-16T00:25:43;4.68;;;3.90;;
7823;SDS011;3957;48.61947800;9.05303100;2022-09-16T00:27:03;4.97;;;3.80;;
7823;SDS011;3957;48.61947800;9.05303100;2022-09-16T00:28:24;4.38;;;3.53;;
7823;SDS011;3957;48.61947800;9.05303100;2022-09-16T00:29:45;5.38;;;3.80;;
7823;SDS011;3957;48.61947800;9.05303100;2022-09-16T00:31:06;4.53;;;3.50;;
7823;SDS011;3957;48.61947800;9.05303100;2022-09-16T00:32:26;5.93;;;3.50;;
7823;SDS011;3957;48.61947800;9.05303100;2022-09-16T00:33:47;3.30;;;3.00;;
7823;SDS011;3957;48.61947800;9.05303100;2022-09-16T00:35:08;6.75;;;3.80;;
7823;SDS011;3957;48.61947800;9.05303100;2022-09-16T00:36:29;3.42;;;3.08;;
7823;SDS011;3957;48.61947800;9.05303100;2022-09-16T00:37:50;4.32;;;3.05;;
7823;SDS011;3957;48.61947800;9.05303100;2022-09-16T00:39:11;3.45;;;3.10;;
7823;SDS011;3957;48.61947800;9.05303100;2022-09-16T00:40:32;5.25;;;3.30;;
7823;SDS011;3957;48.61947800;9.05303100;2022-09-16T00:41:53;3.67;;;3.28;;
7823;SDS011;3957;48.61947800;9.05303100;2022-09-16T00:43:15;4.65;;;3.67;;
7823;SDS011;3957;48.61947800;9.05303100;2022-09-16T00:44:58;4.13;;;3.00;;
7823;SDS011;3957;48.61947800;9.05303100;2022-09-16T00:46:43;5.80;;;3.75;;
7823;SDS011;3957;48.61947800;9.05303100;2022-09-16T00:48:05;5.10;;;3.60;;
7823;SDS011;3957;48.61947800;9.05303100;2022-09-16T00:49:29;6.80;;;3.88;;
7823;SDS011;3957;48.61947800;9.05303100;2022-09-16T00:50:53;8.65;;;3.78;;
7823;SDS011;3957;48.61947800;9.05303100;2022-09-16T00:52:18;5.38;;;3.40;;
7823;SDS011;3957;48.61947800;9.05303100;2022-09-16T00:53:41;6.00;;;4.10;;
7823;SDS011;3957;48.61947800;9.05303100;2022-09-16T00:55:09;4.35;;;3.75;;
7823;SDS011;3957;48.61947800;9.05303100;2022-09-16T00:56:36;4.18;;;3.78;;
7823;SDS011;3957;48.61947800;9.05303100;2022-09-16T00:58:11;5.65;;;4.13;;
7823;SDS011;3957;48.61947800;9.05303100;2022-09-16T00:59:40;6.65;;;4.05;;
7823;SDS011;3957;48.61947800;9.05303100;2022-09-16T01:01:05;4.05;;;3.60;;
7823;SDS011;3957;48.61947800;9.05303100;2022-09-16T01:02:26;6.88;;;4.07;;
7823;SDS011;3957;48.61947800;9.05303100;2022-09-16T01:03:51;4.88;;;4.15;;
7823;SDS011;3957;48.61947800;9.05303100;2022-09-16T01:05:19;6.65;;;4.10;;
7823;SDS011;3957;48.61947800;9.05303100;2022-09-16T01:06:45;5.13;;;4.03;;
7823;SDS011;3957;48.61947800;9.05303100;2022-09-16T01:08:06;6.45;;;4.35;;
7823;SDS011;3957;48.61947800;9.05303100;2022-09-16T01:09:26;8.55;;;4.25;;
7823;SDS011;3957;48.61947800;9.05303100;2022-09-16T01:10:48;7.88;;;4.15;;
7823;SDS011;3957;48.61947800;9.05303100;2022-09-16T01:12:09;4.80;;;4.30;;
7823;SDS011;3957;48.61947800;9.05303100;2022-09-16T01:13:30;6.13;;;4.32;;
7823;SDS011;3957;48.61947800;9.05303100;2022-09-16T01:14:50;7.07;;;4.35;;
7823;SDS011;3957;48.61947800;9.05303100;2022-09-16T01:16:20;5.60;;;4.47;;
7823;SDS011;3957;48.61947800;9.05303100;2022-09-16T01:21:20;7.35;;;4.28;;
7823;SDS011;3957;48.61947800;9.05303100;2022-09-16T01:24:50;7.57;;;4.40;;
7823;SDS011;3957;48.61947800;9.05303100;2022-09-16T01:31:14;7.00;;;4.68;;
7823;SDS011;3957;48.61947800;9.05303100;2022-09-16T01:32:46;6.82;;;4.72;;
7823;SDS011;3957;48.61947800;9.05303100;2022-09-16T01:46:30;7.15;;;5.20;;
7823;SDS011;3957;48.61947800;9.05303100;2022-09-16T01:53:12;8.52;;;5.50;;
7823;SDS011;3957;48.61947800;9.05303100;2022-09-16T01:54:40;9.15;;;5.40;;
7823;SDS011;3957;48.61947800;9.05303100;2022-09-16T02:00:38;7.07;;;4.65;;
7823;SDS011;3957;48.61947800;9.05303100;2022-09-16T02:03:29;6.22;;;4.15;;
7823;SDS011;3957;48.61947800;9.05303100;2022-09-16T02:04:55;7.55;;;5.05;;
7823;SDS011;3957;48.61947800;9.05303100;2022-09-16T02:06:19;6.65;;;4.90;;
7823;SDS011;3957;48.61947800;9.05303100;2022-09-16T02:07:44;6.82;;;4.40;;
7823;SDS011;3957;48.61947800;9.05303100;2022-09-16T02:09:13;7.10;;;4.28;;
7823;SDS011;3957;48.61947800;9.05303100;2022-09-16T02:10:38;5.28;;;4.20;;
7823;SDS011;3957;48.61947800;9.05303100;2022-09-16T02:12:03;4.80;;;4.30;;
7823;SDS011;3957;48.61947800;9.05303100;2022-09-16T02:14:56;6.25;;;5.07;;
7823;SDS011;3957;48.61947800;9.05303100;2022-09-16T02:16:57;6.95;;;4.93;;
7823;SDS011;3957;48.61947800;9.05303100;2022-09-16T02:18:15;7.45;;;4.82;;
7823;SDS011;3957;48.61947800;9.05303100;2022-09-16T02:19:45;5.65;;;4.85;;
7823;SDS011;3957;48.61947800;9.05303100;2022-09-16T02:21:10;6.53;;;4.97;;
7823;SDS011;3957;48.61947800;9.05303100;2022-09-16T02:22:39;5.47;;;4.97;;
7823;SDS011;3957;48.61947800;9.05303100;2022-09-16T02:24:04;7.35;;;5.28;;
7823;SDS011;3957;48.61947800;9.05303100;2022-09-16T02:25:32;6.30;;;5.00;;
7823;SDS011;3957;48.61947800;9.05303100;2022-09-16T02:26:58;5.80;;;4.60;;
7823;SDS011;3957;48.61947800;9.05303100;2022-09-16T02:28:23;4.78;;;4.28;;
7823;SDS011;3957;48.61947800;9.05303100;2022-09-16T02:29:51;7.68;;;4.65;;
7823;SDS011;3957;48.61947800;9.05303100;2022-09-16T02:31:14;5.88;;;4.57;;
7823;SDS011;3957;48.61947800;9.05303100;2022-09-16T02:32:45;7.72;;;5.47;;
7823;SDS011;3957;48.61947800;9.05303100;2022-09-16T02:34:29;5.93;;;4.40;;
7823;SDS011;3957;48.61947800;9.05303100;2022-09-16T02:35:55;6.72;;;4.38;;
7823;SDS011;3957;48.61947800;9.05303100;2022-09-16T02:37:27;7.43;;;5.03;;
7823;SDS011;3957;48.61947800;9.05303100;2022-09-16T02:39:05;5.25;;;4.75;;
7823;SDS011;3957;48.61947800;9.05303100;2022-09-16T02:40:31;6.40;;;5.10;;
7823;SDS011;3957;48.61947800;9.05303100;2022-09-16T02:41:57;5.43;;;4.78;;
7823;SDS011;3957;48.61947800;9.05303100;2022-09-16T02:43:19;6.50;;;4.20;;
7823;SDS011;3957;48.61947800;9.05303100;2022-09-16T02:44:39;6.55;;;4.80;;
7823;SDS011;3957;48.61947800;9.05303100;2022-09-16T02:47:59;5.50;;;4.32;;
7823;SDS011;3957;48.61947800;9.05303100;2022-09-16T02:53:17;5.68;;;4.35;;
7823;SDS011;3957;48.61947800;9.05303100;2022-09-16T02:57:02;5.47;;;4.20;;
7823;SDS011;3957;48.61947800;9.05303100;2022-09-16T02:58:24;5.63;;;4.63;;
7823;SDS011;3957;48.61947800;9.05303100;2022-09-16T02:59:45;7.33;;;5.17;;
7823;SDS011;3957;48.61947800;9.05303100;2022-09-16T03:01:05;7.43;;;4.93;;
7823;SDS011;3957;48.61947800;9.05303100;2022-09-16T03:02:33;6.65;;;4.90;;
7823;SDS011;3957;48.61947800;9.05303100;2022-09-16T03:03:54;6.53;;;4.93;;
7823;SDS011;3957;48.61947800;9.05303100;2022-09-16T03:05:15;6.10;;;4.60;;
7823;SDS011;3957;48.61947800;9.05303100;2022-09-16T03:06:36;5.20;;;4.55;;
7823;SDS011;3957;48.61947800;9.05303100;2022-09-16T03:07:58;8.25;;;4.60;;
7823;SDS011;3957;48.61947800;9.05303100;2022-09-16T03:09:23;5.43;;;4.70;;
7823;SDS011;3957;48.61947800;9.05303100;2022-09-16T03:10:44;6.47;;;5.00;;
7823;SDS011;3957;48.61947800;9.05303100;2022-09-16T03:12:09;7.47;;;4.70;;
7823;SDS011;3957;48.61947800;9.05303100;2022-09-16T03:13:39;6.38;;;4.68;;
7823;SDS011;3957;48.61947800;9.05303100;2022-09-16T03:17:17;6.95;;;4.70;;
7823;SDS011;3957;48.61947800;9.05303100;2022-09-16T03:20:20;5.43;;;4.60;;
7823;SDS011;3957;48.61947800;9.05303100;2022-09-16T03:23:34;5.22;;;4.40;;
7823;SDS011;3957;48.61947800;9.05303100;2022-09-16T03:27:09;5.40;;;4.47;;
7823;SDS011;3957;48.61947800;9.05303100;2022-09-16T03:28:46;6.20;;;4.35;;
7823;SDS011;3957;48.61947800;9.05303100;2022-09-16T03:30:32;5.00;;;4.33;;
7823;SDS011;3957;48.61947800;9.05303100;2022-09-16T03:32:17;5.38;;;4.20;;
7823;SDS011;3957;48.61947800;9.05303100;2022-09-16T03:35:26;5.43;;;4.25;;
7823;SDS011;3957;48.61947800;9.05303100;2022-09-16T03:36:55;5.22;;;4.35;;
7823;SDS011;3957;48.61947800;9.05303100;2022-09-16T03:38:19;4.70;;;4.05;;
7823;SDS011;3957;48.61947800;9.05303100;2022-09-16T03:39:40;4.35;;;3.95;;
7823;SDS011;3957;48.61947800;9.05303100;2022-09-16T03:41:02;3.88;;;3.58;;
7823;SDS011;3957;48.61947800;9.05303100;2022-09-16T03:42:25;6.18;;;3.88;;
7823;SDS011;3957;48.61947800;9.05303100;2022-09-16T03:43:53;5.55;;;4.20;;
7823;SDS011;3957;48.61947800;9.05303100;2022-09-16T03:45:15;4.20;;;3.80;;
7823;SDS011;3957;48.61947800;9.05303100;2022-09-16T03:46:38;4.57;;;4.07;;
7823;SDS011;3957;48.61947800;9.05303100;2022-09-16T03:47:59;5.47;;;4.20;;
7823;SDS011;3957;48.61947800;9.05303100;2022-09-16T03:49:20;4.60;;;4.07;;
7823;SDS011;3957;48.61947800;9.05303100;2022-09-16T03:50:41;6.45;;;4.10;;
7823;SDS011;3957;48.61947800;9.05303100;2022-09-16T03:52:02;5.47;;;3.75;;
7823;SDS011;3957;48.61947800;9.05303100;2022-09-16T03:53:27;5.35;;;4.25;;
7823;SDS011;3957;48.61947800;9.05303100;2022-09-16T03:54:47;5.30;;;4.25;;
7823;SDS011;3957;48.61947800;9.05303100;2022-09-16T03:56:08;5.20;;;4.03;;
7823;SDS011;3957;48.61947800;9.05303100;2022-09-16T03:57:29;6.13;;;4.30;;
7823;SDS011;3957;48.61947800;9.05303100;2022-09-16T03:58:51;5.68;;;4.70;;
7823;SDS011;3957;48.61947800;9.05303100;2022-09-16T04:00:12;6.80;;;4.00;;
7823;SDS011;3957;48.61947800;9.05303100;2022-09-16T04:01:35;7.03;;;4.10;;
7823;SDS011;3957;48.61947800;9.05303100;2022-09-16T04:02:57;4.93;;;4.43;;
7823;SDS011;3957;48.61947800;9.05303100;2022-09-16T04:04:18;5.22;;;4.03;;
7823;SDS011;3957;48.61947800;9.05303100;2022-09-16T04:05:39;4.80;;;4.30;;
7823;SDS011;3957;48.61947800;9.05303100;2022-09-16T04:07:00;4.75;;;4.05;;
7823;SDS011;3957;48.61947800;9.05303100;2022-09-16T04:08:21;6.07;;;3.97;;
7823;SDS011;3957;48.61947800;9.05303100;2022-09-16T04:09:42;5.10;;;4.17;;
7823;SDS011;3957;48.61947800;9.05303100;2022-09-16T04:11:03;6.85;;;3.90;;
7823;SDS011;3957;48.61947800;9.05303100;2022-09-16T04:12:25;4.63;;;4.13;;
7823;SDS011;3957;48.61947800;9.05303100;2022-09-16T04:13:46;5.80;;;3.42;;
7823;SDS011;3957;48.61947800;9.05303100;2022-09-16T04:15:07;4.30;;;3.90;;
7823;SDS011;3957;48.61947800;9.05303100;2022-09-16T04:16:28;5.00;;;3.40;;
7823;SDS011;3957;48.61947800;9.05303100;2022-09-16T04:17:48;4.22;;;3.70;;
7823;SDS011;3957;48.61947800;9.05303100;2022-09-16T04:19:10;5.35;;;4.07;;
7823;SDS011;3957;48.61947800;9.05303100;2022-09-16T04:20:32;5.22;;;4.30;;
7823;SDS011;3957;48.61947800;9.05303100;2022-09-16T04:21:53;4.25;;;3.60;;
7823;SDS011;3957;48.61947800;9.05303100;2022-09-16T04:23:14;5.65;;;3.92;;
7823;SDS011;3957;48.61947800;9.05303100;2022-09-16T04:24:35;4.40;;;3.60;;
7823;SDS011;3957;48.61947800;9.05303100;2022-09-16T04:25:59;5.22;;;3.83;;
7823;SDS011;3957;48.61947800;9.05303100;2022-09-16T04:27:21;4.78;;;3.78;;
7823;SDS011;3957;48.61947800;9.05303100;2022-09-16T04:28:42;7.85;;;4.13;;
7823;SDS011;3957;48.61947800;9.05303100;2022-09-16T04:30:03;9.45;;;3.90;;
7823;SDS011;3957;48.61947800;9.05303100;2022-09-16T04:31:24;4.78;;;3.67;;
7823;SDS011;3957;48.61947800;9.05303100;2022-09-16T04:32:45;6.53;;;4.22;;
7823;SDS011;3957;48.61947800;9.05303100;2022-09-16T04:34:06;5.77;;;4.40;;
7823;SDS011;3957;48.61947800;9.05303100;2022-09-16T04:35:27;5.55;;;3.97;;
7823;SDS011;3957;48.61947800;9.05303100;2022-09-16T04:36:47;8.27;;;4.10;;
7823;SDS011;3957;48.61947800;9.05303100;2022-09-16T04:38:08;4.85;;;3.70;;
7823;SDS011;3957;48.61947800;9.05303100;2022-09-16T04:39:29;4.97;;;3.92;;
7823;SDS011;3957;48.61947800;9.05303100;2022-09-16T04:40:50;4.97;;;4.20;;
7823;SDS011;3957;48.61947800;9.05303100;2022-09-16T04:42:11;5.63;;;5.00;;
7823;SDS011;3957;48.61947800;9.05303100;2022-09-16T04:43:32;8.80;;;4.43;;
7823;SDS011;3957;48.61947800;9.05303100;2022-09-16T04:44:53;7.68;;;3.97;;
7823;SDS011;3957;48.61947800;9.05303100;2022-09-16T04:46:13;8.85;;;3.97;;
7823;SDS011;3957;48.61947800;9.05303100;2022-09-16T04:47:34;6.00;;;3.97;;
7823;SDS011;3957;48.61947800;9.05303100;2022-09-16T04:48:55;4.72;;;3.85;;
7823;SDS011;3957;48.61947800;9.05303100;2022-09-16T04:50:16;4.15;;;3.70;;
7823;SDS011;3957;48.61947800;9.05303100;2022-09-16T04:51:37;6.45;;;4.32;;
7823;SDS011;3957;48.61947800;9.05303100;2022-09-16T04:52:58;7.05;;;4.07;;
7823;SDS011;3957;48.61947800;9.05303100;2022-09-16T04:54:18;7.22;;;4.60;;
7823;SDS011;3957;48.61947800;9.05303100;2022-09-16T04:55:39;6.00;;;4.22;;
7823;SDS011;3957;48.61947800;9.05303100;2022-09-16T04:57:00;6.43;;;4.60;;
7823;SDS011;3957;48.61947800;9.05303100;2022-09-16T04:58:21;5.38;;;4.78;;
7823;SDS011;3957;48.61947800;9.05303100;2022-09-16T04:59:41;6.18;;;4.53;;
7823;SDS011;3957;48.61947800;9.05303100;2022-09-16T05:01:06;6.55;;;4.25;;
7823;SDS011;3957;48.61947800;9.05303100;2022-09-16T05:02:31;4.25;;;3.85;;
7823;SDS011;3957;48.61947800;9.05303100;2022-09-16T05:03:53;5.32;;;3.85;;
7823;SDS011;3957;48.61947800;9.05303100;2022-09-16T05:05:17;5.45;;;3.75;;
7823;SDS011;3957;48.61947800;9.05303100;2022-09-16T05:06:39;4.95;;;4.45;;
7823;SDS011;3957;48.61947800;9.05303100;2022-09-16T05:08:00;4.93;;;3.58;;
7823;SDS011;3957;48.61947800;9.05303100;2022-09-16T05:09:21;6.25;;;3.90;;
7823;SDS011;3957;48.61947800;9.05303100;2022-09-16T05:10:42;7.28;;;4.20;;
7823;SDS011;3957;48.61947800;9.05303100;2022-09-16T05:12:03;4.88;;;3.92;;
7823;SDS011;3957;48.61947800;9.05303100;2022-09-16T05:13:24;4.65;;;3.78;;
7823;SDS011;3957;48.61947800;9.05303100;2022-09-16T05:14:44;4.97;;;4.00;;
7823;SDS011;3957;48.61947800;9.05303100;2022-09-16T05:16:11;4.55;;;3.80;;
7823;SDS011;3957;48.61947800;9.05303100;2022-09-16T05:17:33;4.13;;;3.72;;
7823;SDS011;3957;48.61947800;9.05303100;2022-09-16T05:18:55;6.07;;;3.97;;
7823;SDS011;3957;48.61947800;9.05303100;2022-09-16T05:20:17;5.63;;;4.57;;
7823;SDS011;3957;48.61947800;9.05303100;2022-09-16T05:21:38;5.32;;;4.13;;
7823;SDS011;3957;48.61947800;9.05303100;2022-09-16T05:22:59;4.20;;;3.70;;
7823;SDS011;3957;48.61947800;9.05303100;2022-09-16T05:24:20;4.68;;;3.90;;
7823;SDS011;3957;48.61947800;9.05303100;2022-09-16T05:25:41;5.85;;;4.30;;
7823;SDS011;3957;48.61947800;9.05303100;2022-09-16T05:27:02;5.60;;;4.35;;
7823;SDS011;3957;48.61947800;9.05303100;2022-09-16T05:28:23;5.18;;;4.45;;
7823;SDS011;3957;48.61947800;9.05303100;2022-09-16T05:29:43;4.95;;;3.85;;
7823;SDS011;3957;48.61947800;9.05303100;2022-09-16T05:32:38;4.05;;;3.65;;
7823;SDS011;3957;48.61947800;9.05303100;2022-09-16T05:34:00;5.60;;;4.25;;
7823;SDS011;3957;48.61947800;9.05303100;2022-09-16T05:35:23;7.17;;;3.90;;
7823;SDS011;3957;48.61947800;9.05303100;2022-09-16T05:36:43;5.97;;;4.40;;
7823;SDS011;3957;48.61947800;9.05303100;2022-09-16T05:38:06;5.05;;;4.38;;
7823;SDS011;3957;48.61947800;9.05303100;2022-09-16T05:39:27;6.93;;;4.30;;
7823;SDS011;3957;48.61947800;9.05303100;2022-09-16T05:40:48;4.65;;;4.15;;
7823;SDS011;3957;48.61947800;9.05303100;2022-09-16T05:42:09;4.70;;;4.20;;
7823;SDS011;3957;48.61947800;9.05303100;2022-09-16T05:43:30;5.07;;;4.05;;
7823;SDS011;3957;48.61947800;9.05303100;2022-09-16T05:44:51;4.97;;;4.47;;
7823;SDS011;3957;48.61947800;9.05303100;2022-09-16T05:46:16;6.03;;;4.07;;
7823;SDS011;3957;48.61947800;9.05303100;2022-09-16T05:47:39;5.20;;;3.95;;
7823;SDS011;3957;48.61947800;9.05303100;2022-09-16T05:49:00;4.20;;;3.80;;
7823;SDS011;3957;48.61947800;9.05303100;2022-09-16T05:50:21;6.88;;;4.53;;
7823;SDS011;3957;48.61947800;9.05303100;2022-09-16T05:51:42;5.63;;;3.90;;
7823;SDS011;3957;48.61947800;9.05303100;2022-09-16T05:53:03;6.65;;;4.22;;
7823;SDS011;3957;48.61947800;9.05303100;2022-09-16T05:54:23;6.70;;;4.63;;
7823;SDS011;3957;48.61947800;9.05303100;2022-09-16T05:56:04;4.30;;;3.90;;
7823;SDS011;3957;48.61947800;9.05303100;2022-09-16T05:57:27;5.30;;;4.10;;
7823;SDS011;3957;48.61947800;9.05303100;2022-09-16T05:58:50;4.63;;;3.92;;
7823;SDS011;3957;48.61947800;9.05303100;2022-09-16T06:00:12;5.32;;;4.03;;
7823;SDS011;3957;48.61947800;9.05303100;2022-09-16T06:01:34;4.90;;;4.00;;
7823;SDS011;3957;48.61947800;9.05303100;2022-09-16T06:02:55;6.47;;;4.28;;
7823;SDS011;3957;48.61947800;9.05303100;2022-09-16T06:04:16;6.07;;;3.80;;
7823;SDS011;3957;48.61947800;9.05303100;2022-09-16T06:05:36;5.78;;;4.40;;
7823;SDS011;3957;48.61947800;9.05303100;2022-09-16T06:06:57;5.05;;;4.00;;
7823;SDS011;3957;48.61947800;9.05303100;2022-09-16T06:08:18;7.10;;;4.70;;
7823;SDS011;3957;48.61947800;9.05303100;2022-09-16T06:09:38;10.23;;;4.43;;
7823;SDS011;3957;48.61947800;9.05303100;2022-09-16T06:11:00;5.07;;;3.80;;
7823;SDS011;3957;48.61947800;9.05303100;2022-09-16T06:12:21;5.40;;;3.45;;
7823;SDS011;3957;48.61947800;9.05303100;2022-09-16T06:13:42;5.93;;;3.35;;
7823;SDS011;3957;48.61947800;9.05303100;2022-09-16T06:15:03;4.70;;;3.40;;
7823;SDS011;3957;48.61947800;9.05303100;2022-09-16T06:16:24;4.90;;;3.38;;
7823;SDS011;3957;48.61947800;9.05303100;2022-09-16T06:17:46;4.18;;;3.30;;
7823;SDS011;3957;48.61947800;9.05303100;2022-09-16T06:19:09;4.32;;;3.00;;
7823;SDS011;3957;48.61947800;9.05303100;2022-09-16T06:20:32;3.40;;;3.10;;
7823;SDS011;3957;48.61947800;9.05303100;2022-09-16T06:21:53;6.95;;;3.80;;
7823;SDS011;3957;48.61947800;9.05303100;2022-09-16T06:23:14;5.32;;;3.42;;
7823;SDS011;3957;48.61947800;9.05303100;2022-09-16T06:24:35;4.72;;;3.67;;
7823;SDS011;3957;48.61947800;9.05303100;2022-09-16T06:26:10;5.13;;;2.92;;
7823;SDS011;3957;48.61947800;9.05303100;2022-09-16T06:27:33;3.53;;;2.97;;
7823;SDS011;3957;48.61947800;9.05303100;2022-09-16T06:28:54;4.35;;;3.08;;
7823;SDS011;3957;48.61947800;9.05303100;2022-09-16T06:30:15;7.10;;;3.47;;
7823;SDS011;3957;48.61947800;9.05303100;2022-09-16T06:31:36;5.28;;;3.15;;
7823;SDS011;3957;48.61947800;9.05303100;2022-09-16T06:32:57;3.70;;;2.85;;
7823;SDS011;3957;48.61947800;9.05303100;2022-09-16T06:34:18;8.88;;;3.47;;
7823;SDS011;3957;48.61947800;9.05303100;2022-09-16T06:35:38;4.65;;;3.20;;
7823;SDS011;3957;48.61947800;9.05303100;2022-09-16T06:36:59;5.00;;;3.33;;
7823;SDS011;3957;48.61947800;9.05303100;2022-09-16T06:38:20;4.82;;;3.10;;
7823;SDS011;3957;48.61947800;9.05303100;2022-09-16T06:39:41;6.15;;;3.08;;
7823;SDS011;3957;48.61947800;9.05303100;2022-09-16T06:41:03;3.28;;;2.85;;
7823;SDS011;3957;48.61947800;9.05303100;2022-09-16T06:42:25;6.35;;;3.50;;
7823;SDS011;3957;48.61947800;9.05303100;2022-09-16T06:43:48;3.85;;;2.70;;
7823;SDS011;3957;48.61947800;9.05303100;2022-09-16T06:45:12;3.17;;;2.85;;
7823;SDS011;3957;48.61947800;9.05303100;2022-09-16T06:46:33;3.17;;;2.88;;
7823;SDS011;3957;48.61947800;9.05303100;2022-09-16T06:47:57;3.60;;;2.72;;
7823;SDS011;3957;48.61947800;9.05303100;2022-09-16T06:49:18;4.03;;;3.03;;
7823;SDS011;3957;48.61947800;9.05303100;2022-09-16T06:50:39;4.00;;;2.97;;
7823;SDS011;3957;48.61947800;9.05303100;2022-09-16T06:51:59;4.68;;;2.97;;
7823;SDS011;3957;48.61947800;9.05303100;2022-09-16T06:53:21;4.07;;;3.22;;
7823;SDS011;3957;48.61947800;9.05303100;2022-09-16T06:54:41;4.45;;;3.17;;
7823;SDS011;3957;48.61947800;9.05303100;2022-09-16T06:56:03;3.75;;;2.95;;
7823;SDS011;3957;48.61947800;9.05303100;2022-09-16T06:57:26;6.25;;;3.10;;
7823;SDS011;3957;48.61947800;9.05303100;2022-09-16T06:58:48;3.70;;;2.60;;
7823;SDS011;3957;48.61947800;9.05303100;2022-09-16T07:00:12;5.43;;;3.00;;
7823;SDS011;3957;48.61947800;9.05303100;2022-09-16T07:01:34;6.32;;;3.67;;
7823;SDS011;3957;48.61947800;9.05303100;2022-09-16T07:02:55;4.28;;;3.13;;
7823;SDS011;3957;48.61947800;9.05303100;2022-09-16T07:04:16;3.80;;;3.03;;
7823;SDS011;3957;48.61947800;9.05303100;2022-09-16T07:05:36;4.43;;;2.90;;
7823;SDS011;3957;48.61947800;9.05303100;2022-09-16T07:06:57;4.25;;;2.72;;
7823;SDS011;3957;48.61947800;9.05303100;2022-09-16T07:08:18;4.28;;;3.20;;
7823;SDS011;3957;48.61947800;9.05303100;2022-09-16T07:09:38;5.03;;;3.22;;
7823;SDS011;3957;48.61947800;9.05303100;2022-09-16T07:11:03;9.57;;;3.55;;
7823;SDS011;3957;48.61947800;9.05303100;2022-09-16T07:12:26;4.53;;;3.05;;
7823;SDS011;3957;48.61947800;9.05303100;2022-09-16T07:13:48;4.05;;;3.08;;
7823;SDS011;3957;48.61947800;9.05303100;2022-09-16T07:15:09;4.70;;;3.13;;
7823;SDS011;3957;48.61947800;9.05303100;2022-09-16T07:16:30;4.60;;;3.20;;
7823;SDS011;3957;48.61947800;9.05303100;2022-09-16T07:17:54;4.88;;;3.65;;
7823;SDS011;3957;48.61947800;9.05303100;2022-09-16T07:19:14;6.32;;;3.85;;
7823;SDS011;3957;48.61947800;9.05303100;2022-09-16T07:20:35;6.35;;;3.85;;
7823;SDS011;3957;48.61947800;9.05303100;2022-09-16T07:21:56;4.53;;;3.10;;
7823;SDS011;3957;48.61947800;9.05303100;2022-09-16T07:23:17;4.55;;;3.47;;
7823;SDS011;3957;48.61947800;9.05303100;2022-09-16T07:24:38;4.05;;;3.40;;
7823;SDS011;3957;48.61947800;9.05303100;2022-09-16T07:25:59;4.70;;;3.50;;
7823;SDS011;3957;48.61947800;9.05303100;2022-09-16T07:27:25;4.38;;;3.80;;
7823;SDS011;3957;48.61947800;9.05303100;2022-09-16T07:28:46;5.40;;;3.53;;
7823;SDS011;3957;48.61947800;9.05303100;2022-09-16T07:30:08;4.85;;;3.58;;
7823;SDS011;3957;48.61947800;9.05303100;2022-09-16T07:31:30;5.70;;;4.30;;
7823;SDS011;3957;48.61947800;9.05303100;2022-09-16T07:32:53;5.65;;;4.15;;
7823;SDS011;3957;48.61947800;9.05303100;2022-09-16T07:34:14;5.25;;;3.80;;
7823;SDS011;3957;48.61947800;9.05303100;2022-09-16T07:35:35;4.55;;;4.00;;
7823;SDS011;3957;48.61947800;9.05303100;2022-09-16T07:36:55;4.93;;;3.85;;
7823;SDS011;3957;48.61947800;9.05303100;2022-09-16T07:38:17;4.25;;;3.53;;
7823;SDS011;3957;48.61947800;9.05303100;2022-09-16T07:39:37;6.30;;;4.00;;
7823;SDS011;3957;48.61947800;9.05303100;2022-09-16T07:41:09;6.57;;;3.97;;
7823;SDS011;3957;48.61947800;9.05303100;2022-09-16T07:42:30;5.28;;;3.58;;
7823;SDS011;3957;48.61947800;9.05303100;2022-09-16T07:43:55;5.65;;;2.80;;
7823;SDS011;3957;48.61947800;9.05303100;2022-09-16T07:45:18;4.00;;;3.17;;
7823;SDS011;3957;48.61947800;9.05303100;2022-09-16T07:46:39;3.80;;;3.20;;
7823;SDS011;3957;48.61947800;9.05303100;2022-09-16T07:47:59;4.63;;;2.67;;
7823;SDS011;3957;48.61947800;9.05303100;2022-09-16T07:49:20;6.03;;;3.67;;
7823;SDS011;3957;48.61947800;9.05303100;2022-09-16T07:50:41;5.10;;;3.67;;
7823;SDS011;3957;48.61947800;9.05303100;2022-09-16T07:52:02;4.55;;;3.40;;
7823;SDS011;3957;48.61947800;9.05303100;2022-09-16T07:53:23;5.35;;;3.42;;
7823;SDS011;3957;48.61947800;9.05303100;2022-09-16T07:54:44;6.50;;;3.30;;
7823;SDS011;3957;48.61947800;9.05303100;2022-09-16T07:56:09;5.78;;;2.70;;
7823;SDS011;3957;48.61947800;9.05303100;2022-09-16T07:57:32;5.40;;;3.35;;
7823;SDS011;3957;48.61947800;9.05303100;2022-09-16T07:58:53;5.45;;;3.50;;
7823;SDS011;3957;48.61947800;9.05303100;2022-09-16T08:00:15;4.10;;;2.92;;
7823;SDS011;3957;48.61947800;9.05303100;2022-09-16T08:01:35;5.90;;;3.38;;
7823;SDS011;3957;48.61947800;9.05303100;2022-09-16T08:02:56;5.40;;;3.15;;
7823;SDS011;3957;48.61947800;9.05303100;2022-09-16T08:04:17;7.43;;;3.53;;
7823;SDS011;3957;48.61947800;9.05303100;2022-09-16T08:05:39;5.22;;;3.42;;
7823;SDS011;3957;48.61947800;9.05303100;2022-09-16T08:07:00;5.85;;;3.10;;
7823;SDS011;3957;48.61947800;9.05303100;2022-09-16T08:08:21;4.10;;;2.83;;
7823;SDS011;3957;48.61947800;9.05303100;2022-09-16T08:09:42;6.00;;;3.35;;
7823;SDS011;3957;48.61947800;9.05303100;2022-09-16T08:11:02;3.88;;;2.60;;
7823;SDS011;3957;48.61947800;9.05303100;2022-09-16T08:12:24;4.93;;;3.03;;
7823;SDS011;3957;48.61947800;9.05303100;2022-09-16T08:13:44;5.13;;;3.50;;
7823;SDS011;3957;48.61947800;9.05303100;2022-09-16T08:15:05;3.05;;;2.75;;
7823;SDS011;3957;48.61947800;9.05303100;2022-09-16T08:16:27;3.47;;;2.65;;
7823;SDS011;3957;48.61947800;9.05303100;2022-09-16T08:17:47;4.28;;;3.13;;
7823;SDS011;3957;48.61947800;9.05303100;2022-09-16T08:19:08;3.35;;;2.60;;
7823;SDS011;3957;48.61947800;9.05303100;2022-09-16T08:20:29;4.93;;;3.03;;
7823;SDS011;3957;48.61947800;9.05303100;2022-09-16T08:21:50;5.10;;;3.40;;